Time,TemperatureF,DewpointF,PressureIn,WindDirection,WindDirectionDegrees,WindSpeedMPH,WindSpeedGustMPH,Humidity,HourlyPrecipIn,Conditions,Clouds,dailyrainin,SoftwareType,DateUTC
2013-02-19 00:03:00,44.0,38.0,29.89,South,181,8.0,17.0,79,0.10,,,0.11,,2013-02-19 06:03:00,
2013-02-19 00:12:00,44.0,38.0,29.89,South,181,8.0,17.0,79,0.10,,,0.11,,2013-02-19 06:12:00,
2013-02-19 00:22:00,44.0,38.0,29.92,South,188,8.0,18.0,79,0.07,,,0.11,,2013-02-19 06:22:00,
2013-02-19 00:32:00,44.0,39.0,29.93,South,187,8.0,17.0,83,0.07,,,0.14,,2013-02-19 06:32:00,
2013-02-19 00:42:00,44.0,39.0,29.93,South,187,8.0,17.0,83,0.07,,,0.14,,2013-02-19 06:42:00,
2013-02-19 00:52:00,43.0,38.0,29.95,SSW,193,9.0,16.0,84,0.06,,,0.16,,2013-02-19 06:52:00,
2013-02-19 01:02:00,43.0,39.0,29.97,WSW,238,2.0,10.0,87,0.05,,,0.16,,2013-02-19 07:02:00,
2013-02-19 01:12:00,43.0,39.0,29.97,WSW,238,2.0,10.0,87,0.05,,,0.16,,2013-02-19 07:12:00,
2013-02-19 01:22:00,43.0,39.0,29.97,WSW,238,2.0,10.0,87,0.05,,,0.16,,2013-02-19 07:22:00,
2013-02-19 01:32:00,42.0,40.0,29.96,SSE,160,5.0,10.0,91,0.05,,,0.20,,2013-02-19 07:32:00,
2013-02-19 01:42:00,42.0,40.0,29.96,SSE,160,5.0,10.0,91,0.05,,,0.20,,2013-02-19 07:42:00,
2013-02-19 01:52:00,43.0,41.0,29.96,SSE,152,7.0,12.0,91,0.05,,,0.21,,2013-02-19 07:52:00,
2013-02-19 02:02:00,43.0,40.0,29.95,SSE,157,8.0,14.0,90,0.05,,,0.21,,2013-02-19 08:02:00,
2013-02-19 02:11:00,43.0,40.0,29.95,SSE,157,8.0,14.0,90,0.05,,,0.21,,2013-02-19 08:11:00,
2013-02-19 02:22:00,43.0,41.0,29.91,SSE,149,10.0,20.0,91,0.03,,,0.21,,2013-02-19 08:22:00,
2013-02-19 02:32:00,43.0,41.0,29.90,SSE,167,9.0,17.0,91,0.01,,,0.21,,2013-02-19 08:32:00,
2013-02-19 02:42:00,43.0,41.0,29.90,SSE,167,9.0,17.0,91,0.01,,,0.21,,2013-02-19 08:42:00,
2013-02-19 02:52:00,42.0,40.0,29.90,SSW,195,11.0,22.0,92,0.00,,,0.21,,2013-02-19 08:52:00,
2013-02-19 03:02:00,43.0,40.0,29.89,SSE,163,9.0,-999.0,90,-99.99,,,-99.99,,2013-02-19 09:02:00,
2013-02-19 03:11:00,43.0,40.0,29.89,SSE,163,9.0,-999.0,90,-99.99,,,-99.99,,2013-02-19 09:11:00,
2013-02-19 03:22:00,43.0,40.0,29.90,SSE,167,9.0,17.0,89,0.00,,,0.21,,2013-02-19 09:22:00,
2013-02-19 03:32:00,43.0,40.0,29.89,South,172,12.0,21.0,89,0.00,,,0.21,,2013-02-19 09:32:00,
2013-02-19 03:42:00,43.0,40.0,29.89,South,172,12.0,21.0,89,0.00,,,0.21,,2013-02-19 09:42:00,
2013-02-19 03:52:00,42.0,39.0,29.88,SSE,153,12.0,25.0,88,0.00,,,0.21,,2013-02-19 09:52:00,
2013-02-19 04:02:00,42.0,38.0,29.88,SSE,157,15.0,24.0,87,0.00,,,0.21,,2013-02-19 10:02:00,
2013-02-19 04:11:00,42.0,38.0,29.88,SSE,157,15.0,24.0,87,0.00,,,0.21,,2013-02-19 10:11:00,
2013-02-19 04:22:00,42.0,38.0,29.88,South,174,13.0,18.0,87,0.00,,,0.21,,2013-02-19 10:22:00,
2013-02-19 04:32:00,42.0,38.0,29.88,SE,131,7.0,19.0,87,0.00,,,0.21,,2013-02-19 10:32:00,
2013-02-19 04:42:00,42.0,38.0,29.88,SE,131,7.0,19.0,87,0.00,,,0.21,,2013-02-19 10:42:00,
2013-02-19 04:52:00,42.0,39.0,29.88,SSE,165,10.0,18.0,88,0.00,,,0.21,,2013-02-19 10:52:00,
2013-02-19 05:01:00,42.0,39.0,29.89,South,190,10.0,17.0,88,0.00,,,0.21,,2013-02-19 11:01:00,
2013-02-19 05:11:00,42.0,39.0,29.89,South,190,10.0,17.0,88,0.00,,,0.21,,2013-02-19 11:11:00,
2013-02-19 05:22:00,42.0,39.0,29.90,SE,146,6.0,16.0,88,0.00,,,0.21,,2013-02-19 11:22:00,
2013-02-19 05:32:00,42.0,39.0,29.91,SSW,203,4.0,12.0,89,0.00,,,0.21,,2013-02-19 11:32:00,
2013-02-19 05:42:00,42.0,39.0,29.91,SSW,203,4.0,12.0,89,0.00,,,0.21,,2013-02-19 11:42:00,
2013-02-19 05:52:00,42.0,39.0,29.92,SSW,194,3.0,10.0,90,0.00,,,0.21,,2013-02-19 11:52:00,
2013-02-19 06:02:00,42.0,40.0,29.93,WSW,248,2.0,9.0,92,0.00,,,0.21,,2013-02-19 12:02:00,
2013-02-19 06:12:00,42.0,40.0,29.93,WSW,248,2.0,9.0,92,0.00,,,0.21,,2013-02-19 12:12:00,
2013-02-19 06:22:00,42.0,40.0,29.95,West,278,2.0,8.0,93,0.01,,,0.22,,2013-02-19 12:22:00,
2013-02-19 06:32:00,42.0,40.0,29.96,WSW,253,9.0,16.0,93,0.02,,,0.23,,2013-02-19 12:32:00,
2013-02-19 06:42:00,42.0,40.0,29.96,WSW,253,9.0,16.0,93,0.02,,,0.23,,2013-02-19 12:42:00,
2013-02-19 06:52:00,41.0,39.0,29.98,West,262,6.0,17.0,92,0.02,,,0.23,,2013-02-19 12:52:00,
2013-02-19 07:02:00,40.0,38.0,29.98,WSW,243,9.0,19.0,91,0.03,,,0.24,,2013-02-19 13:02:00,
2013-02-19 07:11:00,40.0,38.0,29.98,WSW,243,9.0,19.0,91,0.03,,,0.24,,2013-02-19 13:11:00,
2013-02-19 07:22:00,40.0,38.0,30.00,West,264,5.0,17.0,91,0.02,,,0.24,,2013-02-19 13:22:00,
2013-02-19 07:32:00,40.0,38.0,30.01,West,277,2.0,12.0,91,0.01,,,0.24,,2013-02-19 13:32:00,
2013-02-19 07:42:00,40.0,38.0,30.01,West,277,2.0,12.0,91,0.01,,,0.24,,2013-02-19 13:42:00,
2013-02-19 07:52:00,40.0,38.0,30.01,WNW,285,5.0,8.0,91,0.01,,,0.24,,2013-02-19 13:52:00,
2013-02-19 08:02:00,40.0,37.0,30.02,SW,221,5.0,12.0,89,0.00,,,0.24,,2013-02-19 14:02:00,
2013-02-19 08:12:00,40.0,37.0,30.02,SW,221,5.0,12.0,89,0.00,,,0.24,,2013-02-19 14:12:00,
2013-02-19 08:22:00,40.0,36.0,30.03,West,271,5.0,10.0,84,0.00,,,0.24,,2013-02-19 14:22:00,
2013-02-19 08:33:00,41.0,35.0,30.03,SW,225,7.0,16.0,80,0.00,,,0.24,,2013-02-19 14:33:00,
2013-02-19 08:42:00,41.0,35.0,30.03,SW,225,7.0,16.0,80,0.00,,,0.24,,2013-02-19 14:42:00,
2013-02-19 08:52:00,42.0,36.0,30.03,West,274,4.0,12.0,80,0.00,,,0.24,,2013-02-19 14:52:00,
2013-02-19 09:02:00,43.0,36.0,30.03,WSW,253,6.0,11.0,77,0.00,,,0.24,,2013-02-19 15:02:00,
2013-02-19 09:11:00,43.0,36.0,30.03,WSW,253,6.0,11.0,77,0.00,,,0.24,,2013-02-19 15:11:00,
2013-02-19 09:22:00,44.0,37.0,30.03,West,264,6.0,11.0,77,0.00,,,0.24,,2013-02-19 15:22:00,
2013-02-19 09:32:00,42.0,36.0,30.03,West,279,6.0,11.0,79,0.00,,,0.24,,2013-02-19 15:32:00,
2013-02-19 09:42:00,42.0,36.0,30.03,West,279,6.0,11.0,79,0.00,,,0.24,,2013-02-19 15:42:00,
2013-02-19 09:52:00,43.0,38.0,30.03,WSW,246,4.0,12.0,81,0.00,,,0.24,,2013-02-19 15:52:00,
2013-02-19 10:02:00,44.0,37.0,30.03,West,271,4.0,14.0,75,0.00,,,0.24,,2013-02-19 16:02:00,
2013-02-19 10:11:00,44.0,37.0,30.03,West,271,4.0,14.0,75,0.00,,,0.24,,2013-02-19 16:11:00,
2013-02-19 10:22:00,44.0,35.0,30.04,West,276,8.0,13.0,71,0.00,,,0.24,,2013-02-19 16:22:00,
2013-02-19 10:32:00,44.0,34.0,30.05,WSW,243,7.0,16.0,69,0.00,,,0.24,,2013-02-19 16:32:00,
2013-02-19 10:42:00,44.0,34.0,30.05,WSW,243,7.0,16.0,69,0.00,,,0.24,,2013-02-19 16:42:00,
2013-02-19 10:52:00,43.0,32.0,30.04,West,276,5.0,10.0,64,0.00,,,0.24,,2013-02-19 16:52:00,
2013-02-19 11:01:00,43.0,32.0,30.04,West,276,5.0,10.0,64,0.00,,,0.24,,2013-02-19 17:01:00,
2013-02-19 11:11:00,43.0,32.0,30.04,West,276,5.0,10.0,64,0.00,,,0.24,,2013-02-19 17:11:00,
2013-02-19 11:21:00,43.0,32.0,30.04,West,276,5.0,10.0,64,0.00,,,0.24,,2013-02-19 17:21:00,
2013-02-19 11:32:00,44.0,32.0,30.04,West,280,8.0,15.0,63,0.00,,,0.24,,2013-02-19 17:32:00,
2013-02-19 11:42:00,44.0,32.0,30.04,West,280,8.0,15.0,63,0.00,,,0.24,,2013-02-19 17:42:00,
2013-02-19 11:52:00,46.0,33.0,30.04,WSW,248,6.0,15.0,61,0.00,,,0.24,,2013-02-19 17:52:00,
2013-02-19 12:02:00,45.0,30.0,30.04,West,270,14.0,23.0,55,0.00,,,0.24,,2013-02-19 18:02:00,
2013-02-19 12:11:00,45.0,30.0,30.04,West,270,14.0,23.0,55,0.00,,,0.24,,2013-02-19 18:11:00,
2013-02-19 12:21:00,46.0,32.0,30.04,WNW,287,6.0,18.0,58,0.00,,,0.24,,2013-02-19 18:21:00,
2013-02-19 12:32:00,46.0,31.0,30.04,West,263,8.0,21.0,56,0.00,,,0.24,,2013-02-19 18:32:00,
2013-02-19 12:42:00,46.0,30.0,30.04,West,276,10.0,18.0,54,0.00,,,0.24,,2013-02-19 18:42:00,
2013-02-19 12:52:00,46.0,30.0,30.04,West,276,10.0,18.0,54,0.00,,,0.24,,2013-02-19 18:52:00,
2013-02-19 13:01:00,46.0,30.0,30.04,West,264,9.0,22.0,54,0.00,,,0.24,,2013-02-19 19:01:00,
2013-02-19 13:11:00,46.0,30.0,30.04,West,264,9.0,22.0,54,0.00,,,0.24,,2013-02-19 19:11:00,
2013-02-19 13:21:00,45.0,27.0,30.05,West,263,6.0,19.0,48,0.00,,,0.24,,2013-02-19 19:21:00,
2013-02-19 13:32:00,46.0,27.0,30.05,West,269,9.0,18.0,48,0.00,,,0.24,,2013-02-19 19:32:00,
2013-02-19 13:42:00,46.0,27.0,30.05,West,269,9.0,18.0,48,0.00,,,0.24,,2013-02-19 19:42:00,
2013-02-19 13:52:00,46.0,27.0,30.05,West,263,7.0,16.0,48,0.00,,,0.24,,2013-02-19 19:52:00,
2013-02-19 14:02:00,46.0,25.0,30.05,WSW,237,8.0,18.0,44,0.00,,,0.24,,2013-02-19 20:02:00,
2013-02-19 14:12:00,46.0,25.0,30.05,WSW,237,8.0,18.0,44,0.00,,,0.24,,2013-02-19 20:12:00,
2013-02-19 14:22:00,46.0,25.0,30.06,West,276,6.0,19.0,43,0.00,,,0.24,,2013-02-19 20:22:00,
2013-02-19 14:32:00,46.0,24.0,30.06,West,280,9.0,19.0,42,0.00,,,0.24,,2013-02-19 20:32:00,
2013-02-19 14:42:00,46.0,24.0,30.06,West,280,9.0,19.0,42,0.00,,,0.24,,2013-02-19 20:42:00,
2013-02-19 14:52:00,45.0,23.0,30.07,WNW,293,9.0,20.0,42,0.00,,,0.24,,2013-02-19 20:52:00,
2013-02-19 15:02:00,46.0,25.0,30.07,WSW,256,9.0,17.0,43,0.00,,,0.24,,2013-02-19 21:02:00,
2013-02-19 15:11:00,46.0,25.0,30.07,WSW,256,9.0,17.0,43,0.00,,,0.24,,2013-02-19 21:11:00,
2013-02-19 15:21:00,46.0,25.0,30.06,West,264,6.0,16.0,44,0.00,,,0.24,,2013-02-19 21:21:00,
2013-02-19 15:32:00,46.0,24.0,30.07,WNW,290,9.0,15.0,42,0.00,,,0.24,,2013-02-19 21:32:00,
2013-02-19 15:42:00,46.0,24.0,30.07,WNW,290,9.0,15.0,42,0.00,,,0.24,,2013-02-19 21:42:00,
2013-02-19 15:51:00,45.0,23.0,30.08,West,280,9.0,18.0,41,0.00,,,0.24,,2013-02-19 21:51:00,
2013-02-19 16:02:00,45.0,23.0,30.09,WNW,295,8.0,16.0,41,0.00,,,0.24,,2013-02-19 22:02:00,
2013-02-19 16:11:00,45.0,23.0,30.09,WNW,295,8.0,16.0,41,0.00,,,0.24,,2013-02-19 22:11:00,
2013-02-19 16:21:00,45.0,23.0,30.09,WNW,282,8.0,18.0,42,0.00,,,0.24,,2013-02-19 22:21:00,
2013-02-19 16:32:00,45.0,23.0,30.10,WNW,284,7.0,17.0,41,0.00,,,0.24,,2013-02-19 22:32:00,
2013-02-19 16:42:00,45.0,23.0,30.10,WNW,284,7.0,17.0,41,0.00,,,0.24,,2013-02-19 22:42:00,
2013-02-19 16:52:00,44.0,20.0,30.10,West,259,6.0,19.0,38,0.00,,,0.24,,2013-02-19 22:52:00,
2013-02-19 17:01:00,44.0,19.0,30.11,West,280,8.0,18.0,37,0.00,,,0.24,,2013-02-19 23:01:00,
2013-02-19 17:11:00,44.0,19.0,30.11,West,280,8.0,18.0,37,0.00,,,0.24,,2013-02-19 23:11:00,
2013-02-19 17:21:00,43.0,20.0,30.11,WNW,296,4.0,13.0,39,0.00,,,0.24,,2013-02-19 23:21:00,
2013-02-19 17:32:00,42.0,20.0,30.12,WNW,293,5.0,12.0,41,0.00,,,0.24,,2013-02-19 23:32:00,
2013-02-19 17:42:00,42.0,20.0,30.12,WNW,293,5.0,12.0,41,0.00,,,0.24,,2013-02-19 23:42:00,
2013-02-19 17:52:00,41.0,20.0,30.13,WSW,255,3.0,12.0,43,0.00,,,0.24,,2013-02-19 23:52:00,
2013-02-19 18:02:00,41.0,20.0,30.14,WSW,258,6.0,14.0,42,0.00,,,0.24,,2013-02-20 00:02:00,
2013-02-19 18:11:00,41.0,20.0,30.14,WSW,258,6.0,14.0,42,0.00,,,0.24,,2013-02-20 00:11:00,
2013-02-19 18:21:00,40.0,19.0,30.14,West,264,5.0,11.0,42,0.00,,,0.24,,2013-02-20 00:21:00,
2013-02-19 18:32:00,39.0,19.0,30.15,West,270,3.0,8.0,44,0.00,,,0.24,,2013-02-20 00:32:00,
2013-02-19 18:42:00,39.0,19.0,30.15,West,270,3.0,8.0,44,0.00,,,0.24,,2013-02-20 00:42:00,
2013-02-19 18:52:00,39.0,20.0,30.16,WSW,239,2.0,8.0,46,0.00,,,0.24,,2013-02-20 00:52:00,
2013-02-19 19:02:00,38.0,20.0,30.16,West,280,3.0,6.0,48,0.00,,,0.24,,2013-02-20 01:02:00,
2013-02-19 19:11:00,38.0,20.0,30.16,West,280,3.0,6.0,48,0.00,,,0.24,,2013-02-20 01:11:00,
2013-02-19 19:22:00,38.0,20.0,30.16,West,261,2.0,4.0,48,0.00,,,0.24,,2013-02-20 01:22:00,
2013-02-19 19:32:00,37.0,20.0,30.17,West,280,2.0,5.0,50,0.00,,,0.24,,2013-02-20 01:32:00,
2013-02-19 19:42:00,37.0,20.0,30.17,West,280,2.0,5.0,50,0.00,,,0.24,,2013-02-20 01:42:00,
2013-02-19 19:52:00,37.0,21.0,30.17,WSW,248,1.0,5.0,51,0.00,,,0.24,,2013-02-20 01:52:00,
2013-02-19 20:02:00,36.0,20.0,30.17,WNW,293,2.0,6.0,52,0.00,,,0.24,,2013-02-20 02:02:00,
2013-02-19 20:11:00,36.0,20.0,30.17,WNW,293,2.0,6.0,52,0.00,,,0.24,,2013-02-20 02:11:00,
2013-02-19 20:21:00,36.0,20.0,30.17,West,273,0.0,5.0,52,0.00,,,0.24,,2013-02-20 02:21:00,
2013-02-19 20:32:00,35.0,20.0,30.17,WSW,257,1.0,4.0,53,0.00,,,0.24,,2013-02-20 02:32:00,
2013-02-19 20:42:00,35.0,20.0,30.17,WSW,257,1.0,4.0,53,0.00,,,0.24,,2013-02-20 02:42:00,
2013-02-19 20:52:00,35.0,20.0,30.18,West,273,1.0,4.0,53,0.00,,,0.24,,2013-02-20 02:52:00,
2013-02-19 21:02:00,35.0,19.0,30.19,West,267,1.0,3.0,52,0.00,,,0.24,,2013-02-20 03:02:00,
2013-02-19 21:12:00,35.0,19.0,30.19,West,267,1.0,3.0,52,0.00,,,0.24,,2013-02-20 03:12:00,
2013-02-19 21:22:00,34.0,19.0,30.19,WSW,239,1.0,-999.0,53,-99.99,,,-99.99,,2013-02-20 03:22:00,
2013-02-19 21:32:00,34.0,19.0,30.19,WSW,239,1.0,-999.0,53,-99.99,,,-99.99,,2013-02-20 03:32:00,
2013-02-19 21:42:00,34.0,19.0,30.19,WSW,239,1.0,-999.0,53,-99.99,,,-99.99,,2013-02-20 03:42:00,
2013-02-19 21:52:00,34.0,19.0,30.19,WSW,239,1.0,-999.0,53,-99.99,,,-99.99,,2013-02-20 03:52:00,
2013-02-19 22:02:00,32.0,19.0,30.21,SSW,210,0.0,1.0,59,0.00,,,0.24,,2013-02-20 04:02:00,
2013-02-19 22:11:00,32.0,19.0,30.21,SSW,210,0.0,1.0,59,0.00,,,0.24,,2013-02-20 04:11:00,
2013-02-19 22:21:00,32.0,20.0,30.21,SSW,207,0.0,0.0,60,0.00,,,0.24,,2013-02-20 04:21:00,
2013-02-19 22:32:00,31.0,20.0,30.22,SW,214,0.0,2.0,63,0.00,,,0.24,,2013-02-20 04:32:00,
2013-02-19 22:42:00,31.0,20.0,30.22,SW,214,0.0,2.0,63,0.00,,,0.24,,2013-02-20 04:42:00,
2013-02-19 22:52:00,31.0,21.0,30.22,SSW,194,0.0,2.0,65,0.00,,,0.24,,2013-02-20 04:52:00,
2013-02-19 23:02:00,30.0,20.0,30.22,SW,233,0.0,1.0,65,0.00,,,0.24,,2013-02-20 05:02:00,
2013-02-19 23:12:00,30.0,20.0,30.22,SW,233,0.0,1.0,65,0.00,,,0.24,,2013-02-20 05:12:00,
2013-02-19 23:22:00,30.0,20.0,30.22,SW,214,0.0,1.0,66,0.00,,,0.24,,2013-02-20 05:22:00,
2013-02-19 23:32:00,30.0,20.0,30.21,SSW,195,0.0,2.0,67,0.00,,,0.18,,2013-02-20 05:32:00,
2013-02-19 23:43:00,30.0,20.0,30.21,SSW,195,0.0,2.0,67,0.00,,,0.18,,2013-02-20 05:43:00,
2013-02-19 23:52:00,30.0,20.0,30.21,SW,217,0.0,1.0,66,0.00,,,0.18,,2013-02-20 05:52:00,